Time;durP1;ratioP1;P1;durP2;ratioP2;P2;SDS_P1;SDS_P2;PMS_P1;PMS_P2;Temp;Humidity;BMP_temperature;BMP_pressure;BME280_temperature;BME280_humidity;BME280_pressure;Samples;Min_cycle;Max_cycle;Signal;HPM_P1;HPM_P2
2021/08/26 00:00:21;;;;;;;7.00;3.05;;;;;;;;;;5005540;28;20127;-86
2021/08/26 00:05:48;;;;;;;10.30;3.10;;;;;;;;;;5022008;28;20052;-85
2021/08/26 00:08:23;;;;;;;9.45;3.15;;;;;;;;;;5024892;28;20033;-84
2021/08/26 00:10:53;;;;;;;8.10;3.10;;;;;;;;;;5021028;28;20032;-85
2021/08/26 00:13:27;;;;;;;8.25;2.65;;;;;;;;;;5004057;28;20025;-85
2021/08/26 00:16:01;;;;;;;7.70;3.13;;;;;;;;;;4967553;28;20151;-84
2021/08/26 00:18:28;;;;;;;9.18;3.15;;;;;;;;;;4956386;28;20583;-85
2021/08/26 00:20:56;;;;;;;9.10;3.20;;;;;;;;;;4964140;28;20101;-86
2021/08/26 00:23:24;;;;;;;8.05;3.13;;;;;;;;;;4957608;28;20396;-85
2021/08/26 00:25:53;;;;;;;10.43;3.50;;;;;;;;;;4962632;28;20983;-85
2021/08/26 00:28:20;;;;;;;9.07;3.20;;;;;;;;;;4975974;28;20384;-85
2021/08/26 00:30:47;;;;;;;10.32;3.15;;;;;;;;;;4978817;28;20062;-86
2021/08/26 00:33:14;;;;;;;8.15;2.97;;;;;;;;;;4970964;28;20030;-86
2021/08/26 00:35:41;;;;;;;7.40;2.78;;;;;;;;;;4980113;28;20070;-85
2021/08/26 00:38:12;;;;;;;9.23;3.38;;;;;;;;;;4943670;28;20133;-85
2021/08/26 00:40:39;;;;;;;7.78;3.00;;;;;;;;;;4971832;28;20042;-85
2021/08/26 00:43:08;;;;;;;9.73;2.97;;;;;;;;;;4960913;28;20569;-84
2021/08/26 00:45:35;;;;;;;9.98;2.90;;;;;;;;;;4963503;28;20101;-84
2021/08/26 00:48:05;;;;;;;8.68;2.90;;;;;;;;;;4991449;28;20038;-87
2021/08/26 00:50:35;;;;;;;9.35;3.25;;;;;;;;;;4995135;28;20036;-85
2021/08/26 00:53:02;;;;;;;7.22;2.80;;;;;;;;;;4984021;28;20032;-85
2021/08/26 00:55:36;;;;;;;9.60;3.20;;;;;;;;;;4987721;28;20066;-86
2021/08/26 00:58:04;;;;;;;9.95;3.28;;;;;;;;;;4988179;28;20029;-85
2021/08/26 01:00:34;;;;;;;11.35;3.75;;;;;;;;;;4986915;28;20022;-85
2021/08/26 01:03:10;;;;;;;10.90;3.83;;;;;;;;;;4983183;28;20030;-85
2021/08/26 01:05:42;;;;;;;9.23;3.50;;;;;;;;;;4984823;28;20014;-85
2021/08/26 01:08:34;;;;;;;8.43;3.30;;;;;;;;;;5005481;28;20034;-86
2021/08/26 01:11:03;;;;;;;9.00;3.33;;;;;;;;;;4988694;28;20521;-85
2021/08/26 01:13:33;;;;;;;8.52;2.95;;;;;;;;;;4987860;28;20120;-86
2021/08/26 01:16:13;;;;;;;9.25;3.17;;;;;;;;;;4990627;28;20041;-85
2021/08/26 01:18:47;;;;;;;8.35;3.28;;;;;;;;;;4978607;28;20050;-85
2021/08/26 01:21:23;;;;;;;7.53;3.10;;;;;;;;;;4981532;28;20452;-85
2021/08/26 01:24:03;;;;;;;11.57;3.70;;;;;;;;;;4998257;28;20536;-85
2021/08/26 01:26:39;;;;;;;8.35;3.35;;;;;;;;;;5023309;28;20040;-85
2021/08/26 01:29:08;;;;;;;11.35;3.75;;;;;;;;;;5009928;28;20030;-84
2021/08/26 01:31:40;;;;;;;9.77;3.70;;;;;;;;;;4999599;28;20038;-84
2021/08/26 01:34:09;;;;;;;11.88;3.58;;;;;;;;;;5014276;28;20144;-84
2021/08/26 01:36:37;;;;;;;9.60;3.70;;;;;;;;;;5003648;28;20116;-84
2021/08/26 01:39:11;;;;;;;8.77;3.50;;;;;;;;;;5005135;28;20292;-85
2021/08/26 01:41:56;;;;;;;11.52;3.33;;;;;;;;;;4993324;28;20050;-83
2021/08/26 01:44:32;;;;;;;9.80;3.17;;;;;;;;;;5002134;28;20706;-83
2021/08/26 01:47:08;;;;;;;8.95;3.20;;;;;;;;;;5001917;28;20029;-83
2021/08/26 01:49:37;;;;;;;9.35;3.60;;;;;;;;;;4996031;28;20072;-83
2021/08/26 01:52:07;;;;;;;8.45;3.10;;;;;;;;;;4999132;28;20544;-84
2021/08/26 01:54:34;;;;;;;8.52;3.35;;;;;;;;;;4998356;28;20146;-83
2021/08/26 01:57:00;;;;;;;8.57;3.00;;;;;;;;;;5002320;28;20021;-84
2021/08/26 01:59:28;;;;;;;10.88;3.42;;;;;;;;;;5001579;28;20025;-83
2021/08/26 02:01:58;;;;;;;11.27;3.30;;;;;;;;;;4996921;28;20061;-84
2021/08/26 02:04:29;;;;;;;10.88;2.90;;;;;;;;;;5014952;28;20119;-84
2021/08/26 02:06:59;;;;;;;8.60;3.05;;;;;;;;;;4981437;28;20063;-84
2021/08/26 02:09:27;;;;;;;9.48;3.30;;;;;;;;;;5003080;28;20025;-85
2021/08/26 02:11:56;;;;;;;9.02;3.10;;;;;;;;;;4996098;28;20517;-84
2021/08/26 02:14:33;;;;;;;9.13;2.80;;;;;;;;;;5003849;28;20580;-83
2021/08/26 02:17:00;;;;;;;9.10;3.10;;;;;;;;;;4999065;28;20491;-82
2021/08/26 02:19:30;;;;;;;7.35;3.25;;;;;;;;;;4999947;28;20065;-84
2021/08/26 02:21:57;;;;;;;8.13;3.15;;;;;;;;;;4999459;28;20037;-85
2021/08/26 02:24:26;;;;;;;8.20;2.63;;;;;;;;;;5001796;28;20064;-84
2021/08/26 02:26:56;;;;;;;9.20;2.80;;;;;;;;;;5009690;28;20440;-85
2021/08/26 02:29:24;;;;;;;7.68;3.08;;;;;;;;;;5018819;28;20098;-84
2021/08/26 02:31:55;;;;;;;8.85;3.38;;;;;;;;;;5002790;28;20060;-85
2021/08/26 02:34:23;;;;;;;8.93;3.38;;;;;;;;;;5008144;28;20116;-85
2021/08/26 02:36:50;;;;;;;11.05;3.58;;;;;;;;;;5003925;28;20029;-85
2021/08/26 02:39:17;;;;;;;10.25;3.65;;;;;;;;;;5020305;28;20025;-84
2021/08/26 02:41:45;;;;;;;9.23;3.80;;;;;;;;;;5019798;28;20037;-85
2021/08/26 02:44:12;;;;;;;7.78;3.33;;;;;;;;;;5010381;28;20041;-84
2021/08/26 02:46:39;;;;;;;8.68;3.25;;;;;;;;;;5019155;28;20041;-85
2021/08/26 02:49:06;;;;;;;8.90;3.50;;;;;;;;;;5037569;28;20025;-84
2021/08/26 02:51:32;;;;;;;8.95;3.63;;;;;;;;;;5034675;28;20092;-85
2021/08/26 02:54:00;;;;;;;8.40;3.83;;;;;;;;;;5010720;28;20063;-84
2021/08/26 02:56:28;;;;;;;8.60;3.00;;;;;;;;;;5027976;28;20323;-84
2021/08/26 02:58:56;;;;;;;8.88;3.50;;;;;;;;;;5026599;28;20021;-85
2021/08/26 03:01:23;;;;;;;9.27;3.70;;;;;;;;;;5026603;28;20074;-85
2021/08/26 03:03:52;;;;;;;9.68;3.65;;;;;;;;;;5021985;28;20055;-84
2021/08/26 03:06:21;;;;;;;8.63;2.92;;;;;;;;;;5010576;28;20092;-84
2021/08/26 03:08:48;;;;;;;8.18;3.03;;;;;;;;;;5015670;28;20021;-84
2021/08/26 03:11:16;;;;;;;11.68;3.95;;;;;;;;;;5023135;28;20132;-86
2021/08/26 03:13:43;;;;;;;7.65;3.20;;;;;;;;;;5018440;28;20033;-84
2021/08/26 03:16:10;;;;;;;13.20;4.40;;;;;;;;;;5003219;28;20025;-83
2021/08/26 03:18:38;;;;;;;8.93;3.45;;;;;;;;;;5007248;28;20051;-84
2021/08/26 03:21:05;;;;;;;9.38;3.63;;;;;;;;;;5020909;28;20029;-84
2021/08/26 03:23:32;;;;;;;10.65;3.83;;;;;;;;;;5008277;28;20699;-84
2021/08/26 03:26:00;;;;;;;8.32;3.42;;;;;;;;;;5009761;28;20544;-84
2021/08/26 03:28:27;;;;;;;9.18;3.60;;;;;;;;;;5009793;28;20053;-82
2021/08/26 03:30:54;;;;;;;9.02;3.58;;;;;;;;;;5013749;28;20063;-84
2021/08/26 03:33:22;;;;;;;8.57;3.72;;;;;;;;;;5009462;28;20030;-84
2021/08/26 03:35:50;;;;;;;10.23;4.20;;;;;;;;;;5016210;28;20016;-84
2021/08/26 03:38:25;;;;;;;10.40;3.97;;;;;;;;;;5019949;28;20025;-84
2021/08/26 03:40:51;;;;;;;8.23;3.40;;;;;;;;;;4996746;28;22967;-83
2021/08/26 03:43:19;;;;;;;9.25;3.40;;;;;;;;;;5008390;28;20037;-83
2021/08/26 03:45:48;;;;;;;9.13;3.50;;;;;;;;;;5014811;28;20033;-83
2021/08/26 03:48:15;;;;;;;9.80;3.72;;;;;;;;;;5022343;28;20029;-83
2021/08/26 03:50:44;;;;;;;10.45;3.47;;;;;;;;;;5004627;28;20033;-84
2021/08/26 03:53:13;;;;;;;12.80;3.90;;;;;;;;;;5017726;28;20120;-84
2021/08/26 03:55:40;;;;;;;10.20;3.70;;;;;;;;;;5014318;28;20090;-83
2021/08/26 03:58:07;;;;;;;13.38;3.58;;;;;;;;;;5006883;28;20524;-84
2021/08/26 04:00:33;;;;;;;11.32;3.33;;;;;;;;;;5013834;28;20029;-83
2021/08/26 04:03:01;;;;;;;11.07;3.80;;;;;;;;;;5015276;28;20029;-84
2021/08/26 04:05:27;;;;;;;11.15;3.75;;;;;;;;;;5020920;28;21563;-85
2021/08/26 04:07:55;;;;;;;11.35;3.70;;;;;;;;;;5014630;28;20116;-85
2021/08/26 04:10:22;;;;;;;9.10;3.60;;;;;;;;;;5020395;28;20180;-84
2021/08/26 04:12:49;;;;;;;8.00;3.45;;;;;;;;;;5018112;28;20025;-83
2021/08/26 04:15:20;;;;;;;9.63;3.03;;;;;;;;;;5018307;28;20029;-84
2021/08/26 04:17:48;;;;;;;9.07;3.30;;;;;;;;;;5013320;28;20021;-83
2021/08/26 04:20:20;;;;;;;9.82;3.40;;;;;;;;;;5018161;28;20103;-84
2021/08/26 04:22:52;;;;;;;9.18;3.30;;;;;;;;;;5012060;28;20389;-85
2021/08/26 04:25:19;;;;;;;9.43;3.38;;;;;;;;;;4999847;28;20041;-84
2021/08/26 04:27:46;;;;;;;9.05;3.55;;;;;;;;;;4996493;28;20068;-84
2021/08/26 04:30:15;;;;;;;6.85;2.70;;;;;;;;;;4999551;28;20057;-83
2021/08/26 04:32:42;;;;;;;9.68;3.35;;;;;;;;;;5010388;28;20044;-83
2021/08/26 04:35:13;;;;;;;9.27;3.40;;;;;;;;;;4997611;28;20513;-84
2021/08/26 04:37:40;;;;;;;9.93;3.15;;;;;;;;;;4993034;28;20448;-85
2021/08/26 04:40:07;;;;;;;8.65;3.40;;;;;;;;;;5014695;28;20121;-85
2021/08/26 04:42:34;;;;;;;8.90;2.97;;;;;;;;;;5007872;28;20048;-85
2021/08/26 04:45:01;;;;;;;7.70;3.10;;;;;;;;;;4996665;28;20485;-85
2021/08/26 04:47:28;;;;;;;10.25;3.63;;;;;;;;;;5001167;28;20036;-85
2021/08/26 04:49:57;;;;;;;9.43;3.47;;;;;;;;;;4992724;28;20022;-85
2021/08/26 04:52:23;;;;;;;8.77;3.00;;;;;;;;;;5001409;28;20029;-85
2021/08/26 04:54:50;;;;;;;11.00;4.07;;;;;;;;;;4990474;28;20312;-85
2021/08/26 04:57:16;;;;;;;10.88;4.10;;;;;;;;;;5000063;28;20043;-83
2021/08/26 04:59:46;;;;;;;10.07;4.40;;;;;;;;;;4999268;28;20033;-84
2021/08/26 05:02:14;;;;;;;11.00;4.47;;;;;;;;;;4995718;28;20568;-84
2021/08/26 05:04:41;;;;;;;17.92;4.97;;;;;;;;;;4991343;28;20103;-84
2021/08/26 05:07:08;;;;;;;11.27;3.80;;;;;;;;;;4996138;28;20030;-84
2021/08/26 05:09:37;;;;;;;10.70;3.47;;;;;;;;;;4990091;28;20037;-84
2021/08/26 05:12:06;;;;;;;9.07;3.58;;;;;;;;;;4997019;28;20032;-84
2021/08/26 05:14:32;;;;;;;10.98;4.22;;;;;;;;;;4994438;28;20397;-84
2021/08/26 05:17:01;;;;;;;9.55;3.20;;;;;;;;;;5013803;28;20021;-84
2021/08/26 05:19:28;;;;;;;12.70;4.45;;;;;;;;;;5001365;28;20034;-83
2021/08/26 05:21:57;;;;;;;14.82;4.43;;;;;;;;;;4998170;28;20036;-84
2021/08/26 05:24:26;;;;;;;14.75;4.45;;;;;;;;;;4991970;28;20034;-84
2021/08/26 05:26:52;;;;;;;9.57;3.50;;;;;;;;;;5040337;28;20041;-85
2021/08/26 05:29:21;;;;;;;11.63;3.58;;;;;;;;;;5043599;28;20018;-84
2021/08/26 05:31:51;;;;;;;10.55;3.60;;;;;;;;;;5017707;28;20029;-84
2021/08/26 05:34:21;;;;;;;12.00;3.78;;;;;;;;;;5028590;28;20120;-84
2021/08/26 05:36:48;;;;;;;13.70;3.80;;;;;;;;;;5020451;28;20028;-85
2021/08/26 05:39:15;;;;;;;10.88;3.92;;;;;;;;;;5011064;28;20040;-85
2021/08/26 05:41:44;;;;;;;11.27;3.35;;;;;;;;;;5007349;28;20055;-85
2021/08/26 05:44:18;;;;;;;8.07;3.30;;;;;;;;;;5025345;28;20040;-85
2021/08/26 05:46:49;;;;;;;15.70;4.03;;;;;;;;;;4964626;28;20058;-85
2021/08/26 05:49:16;;;;;;;11.93;3.80;;;;;;;;;;4950862;28;20895;-85
2021/08/26 05:51:43;;;;;;;15.82;3.97;;;;;;;;;;4947418;28;20432;-85
2021/08/26 05:54:11;;;;;;;10.32;3.75;;;;;;;;;;4967214;28;20050;-85
2021/08/26 05:56:39;;;;;;;14.07;4.32;;;;;;;;;;4960812;28;20037;-84
2021/08/26 05:59:09;;;;;;;9.40;3.35;;;;;;;;;;4930543;28;20066;-84
2021/08/26 06:01:37;;;;;;;12.55;3.83;;;;;;;;;;4961912;28;20040;-84
2021/08/26 06:04:04;;;;;;;9.32;3.38;;;;;;;;;;4964737;28;20034;-84
2021/08/26 06:06:30;;;;;;;11.93;3.88;;;;;;;;;;4966188;28;20039;-84
2021/08/26 06:08:58;;;;;;;8.75;3.67;;;;;;;;;;4961472;28;20038;-84
2021/08/26 06:11:28;;;;;;;16.55;3.60;;;;;;;;;;4969460;28;20116;-82
2021/08/26 06:13:56;;;;;;;12.15;4.03;;;;;;;;;;4944871;28;20039;-84
2021/08/26 06:16:34;;;;;;;12.57;3.60;;;;;;;;;;4965527;28;20125;-84
2021/08/26 06:19:07;;;;;;;11.32;3.95;;;;;;;;;;5004666;28;20866;-84
2021/08/26 06:21:42;;;;;;;11.48;4.18;;;;;;;;;;5016189;28;20049;-84
2021/08/26 06:24:11;;;;;;;12.43;4.07;;;;;;;;;;5005798;28;20493;-85
2021/08/26 06:26:43;;;;;;;13.70;3.80;;;;;;;;;;5014871;28;20050;-84
2021/08/26 06:29:13;;;;;;;12.15;3.35;;;;;;;;;;5022771;28;20071;-83
2021/08/26 06:31:47;;;;;;;13.85;3.95;;;;;;;;;;5015470;28;20044;-84
2021/08/26 06:34:20;;;;;;;11.25;3.30;;;;;;;;;;5008227;28;20495;-83
2021/08/26 06:36:59;;;;;;;10.88;4.13;;;;;;;;;;5015084;28;20036;-84
2021/08/26 06:39:28;;;;;;;15.20;3.88;;;;;;;;;;4992677;28;20025;-84
2021/08/26 06:41:59;;;;;;;20.85;5.45;;;;;;;;;;5015581;28;20028;-84
2021/08/26 06:44:27;;;;;;;14.50;3.95;;;;;;;;;;5020815;28;20033;-86
2021/08/26 06:46:55;;;;;;;15.82;5.60;;;;;;;;;;5021071;28;20028;-84
2021/08/26 06:49:23;;;;;;;15.07;4.30;;;;;;;;;;5007384;28;20120;-85
2021/08/26 06:51:54;;;;;;;12.38;4.30;;;;;;;;;;4997740;28;20056;-83
2021/08/26 06:54:28;;;;;;;13.25;4.20;;;;;;;;;;5004872;28;20068;-83
2021/08/26 06:56:59;;;;;;;20.52;4.75;;;;;;;;;;5015656;28;20039;-83
2021/08/26 06:59:34;;;;;;;16.88;4.78;;;;;;;;;;5025981;28;20029;-83
2021/08/26 07:02:18;;;;;;;18.95;4.88;;;;;;;;;;5031850;28;20033;-85
2021/08/26 07:04:45;;;;;;;14.43;4.80;;;;;;;;;;5022519;28;20369;-83
2021/08/26 07:07:15;;;;;;;15.02;4.43;;;;;;;;;;5019419;28;20040;-86
2021/08/26 07:09:43;;;;;;;12.05;4.65;;;;;;;;;;4995462;28;20108;-84
2021/08/26 07:12:11;;;;;;;13.40;3.97;;;;;;;;;;5000192;28;20051;-85
2021/08/26 07:14:40;;;;;;;10.90;4.18;;;;;;;;;;4977760;28;20037;-83
2021/08/26 07:17:14;;;;;;;14.40;4.43;;;;;;;;;;4999405;28;20042;-84
2021/08/26 07:19:40;;;;;;;14.85;4.47;;;;;;;;;;4996200;28;20037;-82
2021/08/26 07:22:09;;;;;;;18.50;4.78;;;;;;;;;;5000893;28;20552;-83
2021/08/26 07:24:35;;;;;;;15.73;4.28;;;;;;;;;;4998635;28;20037;-83
2021/08/26 07:27:08;;;;;;;16.00;5.63;;;;;;;;;;5009482;28;20180;-84
2021/08/26 07:29:36;;;;;;;14.27;4.47;;;;;;;;;;5001227;28;20060;-83
2021/08/26 07:32:15;;;;;;;11.13;3.80;;;;;;;;;;4984323;28;20030;-82
2021/08/26 07:34:41;;;;;;;13.68;5.30;;;;;;;;;;5001984;28;20038;-83
2021/08/26 07:37:34;;;;;;;14.90;4.40;;;;;;;;;;5005213;28;20033;-82
2021/08/26 07:40:22;;;;;;;11.15;3.80;;;;;;;;;;4963181;28;20092;-83
2021/08/26 07:42:50;;;;;;;10.20;3.92;;;;;;;;;;5011111;28;20025;-84
2021/08/26 07:45:19;;;;;;;12.68;3.42;;;;;;;;;;5009725;28;20026;-83
2021/08/26 07:48:13;;;;;;;14.95;4.07;;;;;;;;;;5018563;28;20025;-83
2021/08/26 07:51:04;;;;;;;9.85;3.67;;;;;;;;;;4983534;28;20080;-84
2021/08/26 07:53:49;;;;;;;7.88;3.33;;;;;;;;;;5000433;28;20044;-83
2021/08/26 07:56:38;;;;;;;;;;;;;;;;;;;;;
2021/08/26 07:59:16;;;;;;;10.57;3.10;;;;;;;;;;4980786;28;20052;-83
2021/08/26 08:01:43;;;;;;;9.63;3.33;;;;;;;;;;4996258;28;20116;-84
2021/08/26 08:04:12;;;;;;;11.55;3.55;;;;;;;;;;5018440;28;20033;-85
2021/08/26 08:06:47;;;;;;;9.57;3.03;;;;;;;;;;4998591;28;20041;-84
2021/08/26 08:09:46;;;;;;;9.05;3.15;;;;;;;;;;5019064;28;20496;-85
2021/08/26 08:12:15;;;;;;;8.45;3.45;;;;;;;;;;4998037;28;20051;-84
2021/08/26 08:14:43;;;;;;;9.15;3.40;;;;;;;;;;5000450;28;20032;-84
2021/08/26 08:17:15;;;;;;;8.32;3.13;;;;;;;;;;4970211;28;20099;-83
2021/08/26 08:19:42;;;;;;;9.43;3.30;;;;;;;;;;5006669;28;20129;-84
2021/08/26 08:22:13;;;;;;;8.07;2.90;;;;;;;;;;5002009;28;20077;-84
2021/08/26 08:24:43;;;;;;;9.55;3.53;;;;;;;;;;4974976;28;20627;-85
2021/08/26 08:27:13;;;;;;;10.07;3.05;;;;;;;;;;4994253;28;20132;-85
2021/08/26 08:29:42;;;;;;;9.57;2.78;;;;;;;;;;4992655;28;20044;-85
2021/08/26 08:32:16;;;;;;;10.80;3.40;;;;;;;;;;4984238;28;20057;-83
2021/08/26 08:34:47;;;;;;;10.57;3.15;;;;;;;;;;4990168;28;20048;-84
2021/08/26 08:37:16;;;;;;;8.23;3.10;;;;;;;;;;4978476;28;20118;-84
2021/08/26 08:39:45;;;;;;;15.60;3.28;;;;;;;;;;4979100;28;20041;-85
2021/08/26 08:42:12;;;;;;;12.00;2.80;;;;;;;;;;4998080;28;20678;-84
2021/08/26 08:44:41;;;;;;;10.77;3.00;;;;;;;;;;4982821;28;20065;-84
2021/08/26 08:47:10;;;;;;;9.85;2.83;;;;;;;;;;4995748;28;20045;-82
2021/08/26 08:49:42;;;;;;;10.25;3.35;;;;;;;;;;4966712;28;20132;-85
2021/08/26 08:52:12;;;;;;;8.43;2.70;;;;;;;;;;4979098;28;20029;-83
2021/08/26 08:54:53;;;;;;;;;;;;;;;;;;;;;
2021/08/26 08:57:27;;;;;;;9.52;2.50;;;;;;;;;;4998841;28;20052;-84
2021/08/26 08:59:53;;;;;;;12.50;2.92;;;;;;;;;;4992318;28;20229;-83
2021/08/26 09:02:29;;;;;;;11.38;3.47;;;;;;;;;;4987566;28;20034;-83
2021/08/26 09:05:03;;;;;;;;;;;;;;;;;;4999935;28;20030;-84
2021/08/26 09:07:33;;;;;;;11.57;3.40;;;;;;;;;;5000565;28;20013;-84
2021/08/26 09:10:05;;;;;;;8.32;2.90;;;;;;;;;;4966043;28;20060;-83
2021/08/26 09:12:46;;;;;;;9.57;2.83;;;;;;;;;;4984849;28;20034;-84
2021/08/26 09:15:33;;;;;;;7.40;2.40;;;;;;;;;;5012263;28;20452;-83
2021/08/26 09:18:16;;;;;;;7.53;2.55;;;;;;;;;;5003396;28;20025;-84
2021/08/26 09:21:10;;;;;;;11.65;3.03;;;;;;;;;;5013542;28;20045;-82
2021/08/26 09:24:00;;;;;;;11.48;3.22;;;;;;;;;;5010792;28;20069;-83
2021/08/26 09:26:28;;;;;;;8.25;2.40;;;;;;;;;;5018332;28;20041;-84
2021/08/26 09:29:04;;;;;;;9.13;2.30;;;;;;;;;;5011255;28;20033;-84
2021/08/26 09:31:32;;;;;;;9.43;2.50;;;;;;;;;;5002661;28;20099;-84
2021/08/26 09:34:13;;;;;;;8.65;3.00;;;;;;;;;;4999573;28;20472;-83
2021/08/26 09:36:50;;;;;;;13.02;2.65;;;;;;;;;;5007941;28;20212;-84
2021/08/26 09:39:20;;;;;;;7.20;2.15;;;;;;;;;;5000966;28;20117;-84
2021/08/26 09:41:47;;;;;;;9.02;2.72;;;;;;;;;;5012545;28;20029;-83
2021/08/26 09:44:29;;;;;;;7.93;2.47;;;;;;;;;;5019314;28;20140;-85
2021/08/26 09:46:59;;;;;;;7.22;2.42;;;;;;;;;;4995919;28;20037;-85
2021/08/26 09:49:29;;;;;;;8.25;2.40;;;;;;;;;;5000845;28;20105;-83
2021/08/26 09:52:06;;;;;;;7.30;2.55;;;;;;;;;;4995172;28;20040;-84
2021/08/26 09:54:44;;;;;;;9.38;2.55;;;;;;;;;;4998395;28;20025;-84
2021/08/26 09:57:28;;;;;;;9.80;2.22;;;;;;;;;;5016429;28;20042;-84
2021/08/26 10:00:03;;;;;;;8.18;2.55;;;;;;;;;;4998229;28;20516;-85
2021/08/26 10:02:34;;;;;;;9.80;2.88;;;;;;;;;;5006450;28;20120;-84
2021/08/26 10:05:08;;;;;;;8.80;2.42;;;;;;;;;;5002578;28;20029;-86
2021/08/26 10:07:39;;;;;;;8.23;2.30;;;;;;;;;;5001355;28;20405;-85
2021/08/26 10:10:08;;;;;;;11.50;2.65;;;;;;;;;;4991394;28;20078;-86
2021/08/26 10:12:37;;;;;;;9.30;2.35;;;;;;;;;;4998232;28;20025;-86
2021/08/26 10:15:06;;;;;;;8.95;2.47;;;;;;;;;;5006225;28;20092;-85
2021/08/26 10:17:34;;;;;;;9.80;2.38;;;;;;;;;;5018459;28;20032;-84
2021/08/26 10:20:02;;;;;;;7.53;2.50;;;;;;;;;;5006416;28;20021;-85
2021/08/26 10:22:32;;;;;;;8.00;2.45;;;;;;;;;;5012695;28;20085;-86
2021/08/26 10:25:01;;;;;;;8.70;2.80;;;;;;;;;;5012348;28;20037;-88
2021/08/26 10:27:33;;;;;;;11.07;2.95;;;;;;;;;;5009595;28;20041;-86
2021/08/26 10:30:00;;;;;;;9.50;2.20;;;;;;;;;;5008127;28;20045;-87
2021/08/26 10:32:31;;;;;;;7.15;2.40;;;;;;;;;;5008555;28;20037;-87
2021/08/26 10:35:16;;;;;;;7.68;2.47;;;;;;;;;;5003703;28;20025;-86
2021/08/26 10:37:50;;;;;;;9.40;2.90;;;;;;;;;;5001253;28;20501;-86
2021/08/26 10:40:29;;;;;;;10.98;2.65;;;;;;;;;;5005608;28;20045;-85
2021/08/26 10:43:08;;;;;;;8.75;3.45;;;;;;;;;;5003154;28;20056;-84
2021/08/26 10:45:53;;;;;;;10.15;2.85;;;;;;;;;;5007095;28;20033;-85
2021/08/26 10:48:28;;;;;;;7.72;2.10;;;;;;;;;;5014886;28;20087;-84
2021/08/26 10:51:20;;;;;;;;;;;;;;;;;;;;;
2021/08/26 10:53:56;;;;;;;9.23;2.60;;;;;;;;;;4987367;28;20474;-84
2021/08/26 10:56:22;;;;;;;8.75;2.60;;;;;;;;;;5002824;28;21278;-84
2021/08/26 10:58:55;;;;;;;9.85;2.50;;;;;;;;;;5007669;28;20053;-85
2021/08/26 11:01:33;;;;;;;7.55;2.20;;;;;;;;;;5008254;28;20034;-83
2021/08/26 11:04:04;;;;;;;9.70;2.30;;;;;;;;;;5015921;28;20029;-85
2021/08/26 11:06:36;;;;;;;9.77;2.40;;;;;;;;;;5004232;28;20036;-84
2021/08/26 11:09:16;;;;;;;8.30;2.30;;;;;;;;;;5003227;28;20079;-84
2021/08/26 11:11:49;;;;;;;11.65;2.70;;;;;;;;;;5001587;28;20040;-85
2021/08/26 11:14:22;;;;;;;9.95;2.40;;;;;;;;;;5019714;28;20112;-85
2021/08/26 11:16:57;;;;;;;9.55;2.60;;;;;;;;;;4993453;28;20087;-85
2021/08/26 11:19:38;;;;;;;10.15;2.88;;;;;;;;;;5000333;28;20036;-85
2021/08/26 11:22:11;;;;;;;8.30;2.50;;;;;;;;;;5003990;28;20078;-85
2021/08/26 11:24:47;;;;;;;10.65;2.47;;;;;;;;;;5000064;28;20497;-85
2021/08/26 11:27:21;;;;;;;9.45;2.70;;;;;;;;;;5020798;28;20055;-86
2021/08/26 11:29:58;;;;;;;7.60;2.40;;;;;;;;;;5026275;28;20032;-84
2021/08/26 11:32:26;;;;;;;8.80;2.45;;;;;;;;;;5005904;28;20040;-85
2021/08/26 11:35:00;;;;;;;9.40;2.75;;;;;;;;;;5006745;28;22567;-84
2021/08/26 11:37:36;;;;;;;10.97;2.90;;;;;;;;;;5022520;28;20029;-83
2021/08/26 11:40:08;;;;;;;7.10;2.40;;;;;;;;;;5024026;28;20064;-83
2021/08/26 11:42:42;;;;;;;11.85;2.60;;;;;;;;;;5021881;28;20025;-81
2021/08/26 11:45:28;;;;;;;9.75;2.53;;;;;;;;;;5019720;28;20029;-80
2021/08/26 11:47:59;;;;;;;9.00;2.60;;;;;;;;;;5018336;28;20021;-81
2021/08/26 11:50:30;;;;;;;10.68;3.03;;;;;;;;;;5023421;28;20033;-86
2021/08/26 11:52:59;;;;;;;8.68;2.92;;;;;;;;;;5022528;28;20041;-86
2021/08/26 11:55:28;;;;;;;9.95;2.90;;;;;;;;;;5007660;28;20026;-85
2021/08/26 11:58:06;;;;;;;9.18;2.80;;;;;;;;;;5003506;28;20068;-85
2021/08/26 12:00:33;;;;;;;9.48;2.53;;;;;;;;;;5008164;28;20998;-85
2021/08/26 12:03:06;;;;;;;9.10;3.05;;;;;;;;;;5019533;28;20124;-85
2021/08/26 12:05:34;;;;;;;11.63;2.95;;;;;;;;;;5022588;28;20034;-86
2021/08/26 12:08:08;;;;;;;9.32;2.95;;;;;;;;;;5017886;28;20033;-87
2021/08/26 12:10:43;;;;;;;11.40;2.97;;;;;;;;;;4988227;28;20430;-88
2021/08/26 12:13:14;;;;;;;11.00;3.10;;;;;;;;;;5022045;28;20123;-85
2021/08/26 12:15:40;;;;;;;11.77;3.00;;;;;;;;;;5018468;28;20045;-86
2021/08/26 12:18:14;;;;;;;10.45;3.20;;;;;;;;;;5008343;28;20017;-85
2021/08/26 12:20:53;;;;;;;9.65;2.85;;;;;;;;;;5017439;28;20510;-87
2021/08/26 12:23:28;;;;;;;10.15;2.88;;;;;;;;;;5020776;28;20125;-84
2021/08/26 12:25:54;;;;;;;;;;;;;;;;;;5015302;28;20567;-84
2021/08/26 12:28:33;;;;;;;8.63;2.67;;;;;;;;;;5019903;28;19916;-84
2021/08/26 12:31:01;;;;;;;9.05;2.60;;;;;;;;;;5019997;28;20428;-87
2021/08/26 12:33:29;;;;;;;11.05;3.10;;;;;;;;;;5007000;28;20033;-85
2021/08/26 12:36:01;;;;;;;9.52;2.97;;;;;;;;;;4999881;28;20159;-85
2021/08/26 12:38:47;;;;;;;8.27;2.80;;;;;;;;;;5001824;28;20026;-86
2021/08/26 12:41:21;;;;;;;8.52;2.83;;;;;;;;;;5022607;28;20063;-85
2021/08/26 12:43:55;;;;;;;7.88;2.70;;;;;;;;;;4999061;28;20108;-86
2021/08/26 12:46:29;;;;;;;9.18;2.75;;;;;;;;;;5024023;28;20025;-85
2021/08/26 12:49:10;;;;;;;9.32;2.97;;;;;;;;;;5004924;28;20033;-85
2021/08/26 12:51:52;;;;;;;8.60;3.20;;;;;;;;;;5014886;28;20039;-87
2021/08/26 12:54:18;;;;;;;9.32;3.05;;;;;;;;;;5011398;28;20021;-84
2021/08/26 12:56:51;;;;;;;8.65;2.72;;;;;;;;;;5002958;28;20044;-84
2021/08/26 12:59:23;;;;;;;11.50;2.80;;;;;;;;;;5003867;28;20021;-85
2021/08/26 13:02:09;;;;;;;11.20;3.30;;;;;;;;;;5015470;28;20714;-84
2021/08/26 13:04:37;;;;;;;10.80;3.05;;;;;;;;;;5016100;28;20022;-86
2021/08/26 13:07:17;;;;;;;9.18;3.13;;;;;;;;;;5011020;28;20135;-87
2021/08/26 13:10:08;;;;;;;11.30;2.88;;;;;;;;;;5017601;28;20088;-85
2021/08/26 13:12:34;;;;;;;9.35;2.90;;;;;;;;;;5019032;28;20052;-82
2021/08/26 13:15:03;;;;;;;9.20;2.60;;;;;;;;;;5002722;28;20773;-84
2021/08/26 13:17:31;;;;;;;7.95;2.40;;;;;;;;;;5019875;28;20037;-87
2021/08/26 13:20:02;;;;;;;8.75;2.72;;;;;;;;;;5024245;28;20025;-85
2021/08/26 13:22:30;;;;;;;8.93;2.60;;;;;;;;;;5008994;28;20021;-85
2021/08/26 13:25:05;;;;;;;11.90;3.03;;;;;;;;;;5025855;28;20033;-85
2021/08/26 13:27:34;;;;;;;12.55;2.80;;;;;;;;;;5020809;28;20041;-85
2021/08/26 13:30:05;;;;;;;6.93;2.50;;;;;;;;;;5016849;28;20029;-84
2021/08/26 13:32:34;;;;;;;7.95;2.53;;;;;;;;;;4992599;28;20056;-85
2021/08/26 13:35:07;;;;;;;9.82;2.55;;;;;;;;;;5004640;28;20040;-85
2021/08/26 13:37:39;;;;;;;9.93;2.70;;;;;;;;;;5002896;28;20029;-85
2021/08/26 13:40:09;;;;;;;11.07;2.70;;;;;;;;;;5002571;28;20378;-86
2021/08/26 13:42:38;;;;;;;9.02;2.67;;;;;;;;;;4995866;28;20034;-86
2021/08/26 13:45:08;;;;;;;12.30;2.40;;;;;;;;;;5000750;28;20508;-87
2021/08/26 13:47:37;;;;;;;11.35;2.75;;;;;;;;;;4999641;28;20036;-87
2021/08/26 13:50:06;;;;;;;7.82;2.53;;;;;;;;;;5006662;28;20030;-84
2021/08/26 13:52:36;;;;;;;9.43;2.63;;;;;;;;;;4998381;28;20032;-83
2021/08/26 13:55:04;;;;;;;9.85;2.35;;;;;;;;;;5003252;28;20108;-85
2021/08/26 13:57:43;;;;;;;9.60;2.65;;;;;;;;;;5003653;28;20848;-85
2021/08/26 14:00:11;;;;;;;8.68;2.50;;;;;;;;;;5003286;28;20040;-85
2021/08/26 14:02:38;;;;;;;8.32;2.80;;;;;;;;;;5001845;28;20037;-85
2021/08/26 14:05:09;;;;;;;10.80;2.55;;;;;;;;;;4987987;28;20121;-88
2021/08/26 14:07:41;;;;;;;10.50;3.08;;;;;;;;;;5000744;28;20049;-86
2021/08/26 14:10:08;;;;;;;10.52;2.78;;;;;;;;;;5009544;28;20149;-87
2021/08/26 14:12:37;;;;;;;7.75;2.60;;;;;;;;;;5000649;28;20048;-85
2021/08/26 14:15:07;;;;;;;9.07;2.38;;;;;;;;;;4986727;28;20041;-86
2021/08/26 14:17:36;;;;;;;11.25;2.53;;;;;;;;;;5003369;28;20041;-84
2021/08/26 14:20:05;;;;;;;12.75;2.58;;;;;;;;;;5001694;28;20029;-86
2021/08/26 14:22:32;;;;;;;7.55;2.60;;;;;;;;;;5013186;28;20766;-86
2021/08/26 14:25:00;;;;;;;8.02;2.42;;;;;;;;;;4986949;28;20026;-84
2021/08/26 14:27:31;;;;;;;10.43;2.42;;;;;;;;;;5006410;28;20103;-85
2021/08/26 14:29:59;;;;;;;9.32;2.75;;;;;;;;;;5001878;28;20440;-85
2021/08/26 14:32:31;;;;;;;8.30;2.25;;;;;;;;;;4987495;28;20037;-85
2021/08/26 14:34:59;;;;;;;10.13;2.50;;;;;;;;;;4999576;28;20096;-85
2021/08/26 14:37:28;;;;;;;8.63;2.30;;;;;;;;;;5001386;28;20033;-85
2021/08/26 14:39:56;;;;;;;12.32;2.58;;;;;;;;;;5002543;28;20314;-85
2021/08/26 14:42:24;;;;;;;12.02;2.45;;;;;;;;;;5000782;28;20120;-84
2021/08/26 14:44:50;;;;;;;8.45;2.40;;;;;;;;;;5000245;28;21134;-85
2021/08/26 14:47:19;;;;;;;11.18;2.50;;;;;;;;;;5000609;28;20044;-86
2021/08/26 14:49:46;;;;;;;9.48;2.40;;;;;;;;;;5002599;28;20060;-85
2021/08/26 14:52:14;;;;;;;6.70;2.17;;;;;;;;;;4983853;28;20555;-85
2021/08/26 14:54:41;;;;;;;7.78;2.10;;;;;;;;;;5001864;28;20045;-86
2021/08/26 14:57:09;;;;;;;11.43;2.63;;;;;;;;;;5002299;28;20122;-85
2021/08/26 14:59:39;;;;;;;9.73;2.03;;;;;;;;;;4997845;28;20025;-86
2021/08/26 15:02:15;;;;;;;8.35;2.20;;;;;;;;;;5001933;28;20041;-87
2021/08/26 15:04:43;;;;;;;9.10;1.98;;;;;;;;;;4998147;28;20044;-84
2021/08/26 15:07:11;;;;;;;9.70;2.15;;;;;;;;;;5000410;28;20557;-86